sensor_id;sensor_type;location;lat;lon;timestamp;temperature;humidity
2657;DHT22;1338;48.176;11.792;2022-08-03T00:00:33;18.00;1.00
2657;DHT22;1338;48.176;11.792;2022-08-03T00:03:01;17.90;1.00
2657;DHT22;1338;48.176;11.792;2022-08-03T00:05:30;17.80;1.00
2657;DHT22;1338;48.176;11.792;2022-08-03T00:07:59;17.80;1.00
2657;DHT22;1338;48.176;11.792;2022-08-03T00:10:28;18.00;1.00
2657;DHT22;1338;48.176;11.792;2022-08-03T00:12:57;17.80;1.00
2657;DHT22;1338;48.176;11.792;2022-08-03T00:15:25;17.80;1.00
2657;DHT22;1338;48.176;11.792;2022-08-03T00:17:54;17.60;1.00
2657;DHT22;1338;48.176;11.792;2022-08-03T00:20:23;17.50;1.00
2657;DHT22;1338;48.176;11.792;2022-08-03T00:22:51;17.40;1.00
2657;DHT22;1338;48.176;11.792;2022-08-03T00:25:19;17.40;1.00
2657;DHT22;1338;48.176;11.792;2022-08-03T00:27:48;17.30;1.00
2657;DHT22;1338;48.176;11.792;2022-08-03T00:30:18;17.30;1.00
2657;DHT22;1338;48.176;11.792;2022-08-03T00:32:47;17.20;1.00
2657;DHT22;1338;48.176;11.792;2022-08-03T00:35:15;17.20;1.00
2657;DHT22;1338;48.176;11.792;2022-08-03T00:38:03;17.20;1.00
2657;DHT22;1338;48.176;11.792;2022-08-03T00:40:31;17.10;1.00
2657;DHT22;1338;48.176;11.792;2022-08-03T00:43:01;17.00;1.00
2657;DHT22;1338;48.176;11.792;2022-08-03T00:45:33;17.20;1.00
2657;DHT22;1338;48.176;11.792;2022-08-03T00:48:02;17.10;1.00
2657;DHT22;1338;48.176;11.792;2022-08-03T00:50:34;17.00;1.00
2657;DHT22;1338;48.176;11.792;2022-08-03T00:53:05;16.90;1.00
2657;DHT22;1338;48.176;11.792;2022-08-03T00:55:35;17.00;1.00
2657;DHT22;1338;48.176;11.792;2022-08-03T00:58:04;16.90;1.00
2657;DHT22;1338;48.176;11.792;2022-08-03T01:00:36;16.80;1.00
2657;DHT22;1338;48.176;11.792;2022-08-03T01:03:06;16.80;1.00
2657;DHT22;1338;48.176;11.792;2022-08-03T01:05:43;16.70;1.00
2657;DHT22;1338;48.176;11.792;2022-08-03T01:08:21;16.70;1.00
2657;DHT22;1338;48.176;11.792;2022-08-03T01:10:56;16.80;1.00
2657;DHT22;1338;48.176;11.792;2022-08-03T01:13:44;16.70;1.00
2657;DHT22;1338;48.176;11.792;2022-08-03T01:16:41;16.70;1.00
2657;DHT22;1338;48.176;11.792;2022-08-03T01:19:30;16.60;1.00
2657;DHT22;1338;48.176;11.792;2022-08-03T01:22:22;16.70;1.00
2657;DHT22;1338;48.176;11.792;2022-08-03T01:24:58;16.50;1.00
2657;DHT22;1338;48.176;11.792;2022-08-03T01:27:38;16.50;1.00
2657;DHT22;1338;48.176;11.792;2022-08-03T01:30:12;16.50;1.00
2657;DHT22;1338;48.176;11.792;2022-08-03T01:32:47;16.50;1.00
2657;DHT22;1338;48.176;11.792;2022-08-03T01:35:32;16.40;1.00
2657;DHT22;1338;48.176;11.792;2022-08-03T01:38:09;16.40;1.00
2657;DHT22;1338;48.176;11.792;2022-08-03T01:40:40;16.30;1.00
2657;DHT22;1338;48.176;11.792;2022-08-03T01:43:15;16.40;1.00
2657;DHT22;1338;48.176;11.792;2022-08-03T01:46:06;16.30;1.00
2657;DHT22;1338;48.176;11.792;2022-08-03T01:48:36;16.30;1.00
2657;DHT22;1338;48.176;11.792;2022-08-03T01:51:05;16.40;1.00
2657;DHT22;1338;48.176;11.792;2022-08-03T01:53:36;16.30;1.00
2657;DHT22;1338;48.176;11.792;2022-08-03T01:56:05;16.30;1.00
2657;DHT22;1338;48.176;11.792;2022-08-03T01:58:35;16.30;1.00
2657;DHT22;1338;48.176;11.792;2022-08-03T02:01:06;16.30;1.00
2657;DHT22;1338;48.176;11.792;2022-08-03T02:03:38;16.30;1.00
2657;DHT22;1338;48.176;11.792;2022-08-03T02:06:29;16.20;1.00
2657;DHT22;1338;48.176;11.792;2022-08-03T02:09:19;16.30;1.00
2657;DHT22;1338;48.176;11.792;2022-08-03T02:11:48;16.30;1.00
2657;DHT22;1338;48.176;11.792;2022-08-03T02:14:19;16.30;1.00
2657;DHT22;1338;48.176;11.792;2022-08-03T02:16:49;16.40;1.00
2657;DHT22;1338;48.176;11.792;2022-08-03T02:19:18;16.20;1.00
2657;DHT22;1338;48.176;11.792;2022-08-03T02:21:48;16.20;1.00
2657;DHT22;1338;48.176;11.792;2022-08-03T02:24:26;16.20;1.00
2657;DHT22;1338;48.176;11.792;2022-08-03T02:26:56;16.20;1.00
2657;DHT22;1338;48.176;11.792;2022-08-03T02:29:28;16.20;1.00
2657;DHT22;1338;48.176;11.792;2022-08-03T02:32:13;16.10;1.00
2657;DHT22;1338;48.176;11.792;2022-08-03T02:34:46;16.10;1.00
2657;DHT22;1338;48.176;11.792;2022-08-03T02:37:18;16.10;1.00
2657;DHT22;1338;48.176;11.792;2022-08-03T02:39:47;16.00;1.00
2657;DHT22;1338;48.176;11.792;2022-08-03T02:42:20;16.00;1.00
2657;DHT22;1338;48.176;11.792;2022-08-03T02:44:53;16.00;1.00
2657;DHT22;1338;48.176;11.792;2022-08-03T02:47:25;15.90;1.00
2657;DHT22;1338;48.176;11.792;2022-08-03T02:50:15;15.90;1.00
2657;DHT22;1338;48.176;11.792;2022-08-03T02:52:45;15.90;1.00
2657;DHT22;1338;48.176;11.792;2022-08-03T02:55:15;15.80;1.00
2657;DHT22;1338;48.176;11.792;2022-08-03T02:57:45;15.80;1.00
2657;DHT22;1338;48.176;11.792;2022-08-03T03:00:14;15.80;1.00
2657;DHT22;1338;48.176;11.792;2022-08-03T03:02:56;15.70;1.00
2657;DHT22;1338;48.176;11.792;2022-08-03T03:05:26;15.60;1.00
2657;DHT22;1338;48.176;11.792;2022-08-03T03:08:16;15.70;1.00
2657;DHT22;1338;48.176;11.792;2022-08-03T03:10:53;15.70;1.00
2657;DHT22;1338;48.176;11.792;2022-08-03T03:13:22;15.70;1.00
2657;DHT22;1338;48.176;11.792;2022-08-03T03:15:51;15.50;1.00
2657;DHT22;1338;48.176;11.792;2022-08-03T03:18:23;15.50;1.00
2657;DHT22;1338;48.176;11.792;2022-08-03T03:20:52;15.60;1.00
2657;DHT22;1338;48.176;11.792;2022-08-03T03:23:21;15.50;1.00
2657;DHT22;1338;48.176;11.792;2022-08-03T03:25:51;15.50;1.00
2657;DHT22;1338;48.176;11.792;2022-08-03T03:28:22;15.50;1.00
2657;DHT22;1338;48.176;11.792;2022-08-03T03:30:51;15.40;1.00
2657;DHT22;1338;48.176;11.792;2022-08-03T03:33:21;15.30;1.00
2657;DHT22;1338;48.176;11.792;2022-08-03T03:35:50;15.30;1.00
2657;DHT22;1338;48.176;11.792;2022-08-03T03:38:19;15.20;1.00
2657;DHT22;1338;48.176;11.792;2022-08-03T03:40:47;15.20;1.00
2657;DHT22;1338;48.176;11.792;2022-08-03T03:43:16;15.20;1.00
2657;DHT22;1338;48.176;11.792;2022-08-03T03:45:46;15.30;1.00
2657;DHT22;1338;48.176;11.792;2022-08-03T03:48:14;15.50;1.00
2657;DHT22;1338;48.176;11.792;2022-08-03T03:50:44;15.50;1.00
2657;DHT22;1338;48.176;11.792;2022-08-03T03:53:13;15.60;1.00
2657;DHT22;1338;48.176;11.792;2022-08-03T03:55:42;15.50;1.00
2657;DHT22;1338;48.176;11.792;2022-08-03T03:58:29;15.40;1.00
2657;DHT22;1338;48.176;11.792;2022-08-03T04:00:58;15.30;1.00
2657;DHT22;1338;48.176;11.792;2022-08-03T04:03:26;15.20;1.00
2657;DHT22;1338;48.176;11.792;2022-08-03T04:05:56;15.20;1.00
2657;DHT22;1338;48.176;11.792;2022-08-03T04:08:47;15.20;1.00
2657;DHT22;1338;48.176;11.792;2022-08-03T04:11:37;15.20;1.00
2657;DHT22;1338;48.176;11.792;2022-08-03T04:14:09;15.20;1.00
2657;DHT22;1338;48.176;11.792;2022-08-03T04:16:41;15.20;1.00
2657;DHT22;1338;48.176;11.792;2022-08-03T04:19:12;15.40;1.00
2657;DHT22;1338;48.176;11.792;2022-08-03T04:21:53;15.40;1.00
2657;DHT22;1338;48.176;11.792;2022-08-03T04:24:25;15.10;1.00
2657;DHT22;1338;48.176;11.792;2022-08-03T04:26:55;15.20;1.00
2657;DHT22;1338;48.176;11.792;2022-08-03T04:29:25;15.30;1.00
2657;DHT22;1338;48.176;11.792;2022-08-03T04:31:53;15.60;1.00
2657;DHT22;1338;48.176;11.792;2022-08-03T04:34:22;15.50;1.00
2657;DHT22;1338;48.176;11.792;2022-08-03T04:36:57;15.40;1.00
2657;DHT22;1338;48.176;11.792;2022-08-03T04:39:27;15.20;1.00
2657;DHT22;1338;48.176;11.792;2022-08-03T04:41:59;15.10;1.00
2657;DHT22;1338;48.176;11.792;2022-08-03T04:44:36;15.10;1.00
2657;DHT22;1338;48.176;11.792;2022-08-03T04:47:06;15.10;1.00
2657;DHT22;1338;48.176;11.792;2022-08-03T04:49:36;15.20;1.00
2657;DHT22;1338;48.176;11.792;2022-08-03T04:52:07;15.40;1.00
2657;DHT22;1338;48.176;11.792;2022-08-03T04:54:40;16.70;99.90
2657;DHT22;1338;48.176;11.792;2022-08-03T04:57:16;17.90;1.00
2657;DHT22;1338;48.176;11.792;2022-08-03T04:59:49;18.80;1.00
2657;DHT22;1338;48.176;11.792;2022-08-03T05:02:27;18.80;1.00
2657;DHT22;1338;48.176;11.792;2022-08-03T05:04:56;19.10;1.00
2657;DHT22;1338;48.176;11.792;2022-08-03T05:07:25;19.70;1.00
2657;DHT22;1338;48.176;11.792;2022-08-03T05:10:04;19.60;1.00
2657;DHT22;1338;48.176;11.792;2022-08-03T05:12:42;20.30;1.00
2657;DHT22;1338;48.176;11.792;2022-08-03T05:15:11;19.60;1.00
2657;DHT22;1338;48.176;11.792;2022-08-03T05:17:39;19.40;1.00
2657;DHT22;1338;48.176;11.792;2022-08-03T05:20:09;19.70;1.00
2657;DHT22;1338;48.176;11.792;2022-08-03T05:22:39;19.90;1.00
2657;DHT22;1338;48.176;11.792;2022-08-03T05:25:08;19.60;1.00
2657;DHT22;1338;48.176;11.792;2022-08-03T05:27:45;19.40;1.00
2657;DHT22;1338;48.176;11.792;2022-08-03T05:30:13;19.70;1.00
2657;DHT22;1338;48.176;11.792;2022-08-03T05:33:00;20.10;1.00
2657;DHT22;1338;48.176;11.792;2022-08-03T05:35:28;20.20;1.00
2657;DHT22;1338;48.176;11.792;2022-08-03T05:38:17;20.20;1.00
2657;DHT22;1338;48.176;11.792;2022-08-03T05:40:54;20.70;1.00
2657;DHT22;1338;48.176;11.792;2022-08-03T05:43:43;20.60;1.00
2657;DHT22;1338;48.176;11.792;2022-08-03T05:46:11;20.80;1.00
2657;DHT22;1338;48.176;11.792;2022-08-03T05:48:39;20.80;1.00
2657;DHT22;1338;48.176;11.792;2022-08-03T05:51:08;20.80;1.00
2657;DHT22;1338;48.176;11.792;2022-08-03T05:53:39;20.90;1.00
2657;DHT22;1338;48.176;11.792;2022-08-03T05:56:07;20.50;1.00
2657;DHT22;1338;48.176;11.792;2022-08-03T05:58:42;19.50;1.00
2657;DHT22;1338;48.176;11.792;2022-08-03T06:01:10;19.10;1.00
2657;DHT22;1338;48.176;11.792;2022-08-03T06:03:38;19.10;1.00
2657;DHT22;1338;48.176;11.792;2022-08-03T06:06:07;19.10;1.00
2657;DHT22;1338;48.176;11.792;2022-08-03T06:08:35;19.30;1.00
2657;DHT22;1338;48.176;11.792;2022-08-03T06:11:05;19.10;1.00
2657;DHT22;1338;48.176;11.792;2022-08-03T06:13:34;19.10;1.00
2657;DHT22;1338;48.176;11.792;2022-08-03T06:16:02;19.30;1.00
2657;DHT22;1338;48.176;11.792;2022-08-03T06:18:30;19.40;1.00
2657;DHT22;1338;48.176;11.792;2022-08-03T06:20:59;19.40;1.00
2657;DHT22;1338;48.176;11.792;2022-08-03T06:23:43;19.50;1.00
2657;DHT22;1338;48.176;11.792;2022-08-03T06:26:23;19.70;1.00
2657;DHT22;1338;48.176;11.792;2022-08-03T06:28:51;19.80;1.00
2657;DHT22;1338;48.176;11.792;2022-08-03T06:31:23;19.90;1.00
2657;DHT22;1338;48.176;11.792;2022-08-03T06:34:01;19.90;1.00
2657;DHT22;1338;48.176;11.792;2022-08-03T06:36:49;20.00;1.00
2657;DHT22;1338;48.176;11.792;2022-08-03T06:39:19;20.10;1.00
2657;DHT22;1338;48.176;11.792;2022-08-03T06:41:51;20.40;1.00
2657;DHT22;1338;48.176;11.792;2022-08-03T06:44:21;20.40;1.00
2657;DHT22;1338;48.176;11.792;2022-08-03T06:46:49;20.30;1.00
2657;DHT22;1338;48.176;11.792;2022-08-03T06:49:18;20.40;1.00
2657;DHT22;1338;48.176;11.792;2022-08-03T06:51:46;20.70;1.00
2657;DHT22;1338;48.176;11.792;2022-08-03T06:54:34;20.80;1.00
2657;DHT22;1338;48.176;11.792;2022-08-03T06:57:04;20.90;1.00
2657;DHT22;1338;48.176;11.792;2022-08-03T06:59:33;21.00;1.00
2657;DHT22;1338;48.176;11.792;2022-08-03T07:02:22;21.20;1.00
2657;DHT22;1338;48.176;11.792;2022-08-03T07:04:54;21.30;1.00
2657;DHT22;1338;48.176;11.792;2022-08-03T07:07:22;21.40;1.00
2657;DHT22;1338;48.176;11.792;2022-08-03T07:09:50;21.40;1.00
2657;DHT22;1338;48.176;11.792;2022-08-03T07:12:26;21.60;1.00
2657;DHT22;1338;48.176;11.792;2022-08-03T07:14:55;21.70;1.00
2657;DHT22;1338;48.176;11.792;2022-08-03T07:17:28;21.90;1.00
2657;DHT22;1338;48.176;11.792;2022-08-03T07:19:57;22.00;1.00
2657;DHT22;1338;48.176;11.792;2022-08-03T07:22:26;22.00;1.00
2657;DHT22;1338;48.176;11.792;2022-08-03T07:24:55;22.00;1.00
2657;DHT22;1338;48.176;11.792;2022-08-03T07:27:25;22.10;1.00
2657;DHT22;1338;48.176;11.792;2022-08-03T07:29:55;22.30;1.00
2657;DHT22;1338;48.176;11.792;2022-08-03T07:32:23;22.40;1.00
2657;DHT22;1338;48.176;11.792;2022-08-03T07:34:51;22.50;1.00
2657;DHT22;1338;48.176;11.792;2022-08-03T07:37:26;22.70;1.00
2657;DHT22;1338;48.176;11.792;2022-08-03T07:39:54;22.70;1.00
2657;DHT22;1338;48.176;11.792;2022-08-03T07:42:23;22.80;1.00
2657;DHT22;1338;48.176;11.792;2022-08-03T07:44:52;22.80;1.00
2657;DHT22;1338;48.176;11.792;2022-08-03T07:47:23;23.00;1.00
2657;DHT22;1338;48.176;11.792;2022-08-03T07:50:00;23.20;1.00
2657;DHT22;1338;48.176;11.792;2022-08-03T07:52:29;23.20;1.00
2657;DHT22;1338;48.176;11.792;2022-08-03T07:55:17;23.30;1.00
2657;DHT22;1338;48.176;11.792;2022-08-03T07:57:46;23.30;1.00
2657;DHT22;1338;48.176;11.792;2022-08-03T08:00:17;23.70;1.00
2657;DHT22;1338;48.176;11.792;2022-08-03T08:02:46;23.70;1.00
2657;DHT22;1338;48.176;11.792;2022-08-03T08:05:14;23.80;1.00
2657;DHT22;1338;48.176;11.792;2022-08-03T08:07:42;23.70;1.00
2657;DHT22;1338;48.176;11.792;2022-08-03T08:10:17;24.20;1.00
2657;DHT22;1338;48.176;11.792;2022-08-03T08:12:46;24.30;1.00
2657;DHT22;1338;48.176;11.792;2022-08-03T08:15:15;24.00;1.00
2657;DHT22;1338;48.176;11.792;2022-08-03T08:17:45;24.10;1.00
2657;DHT22;1338;48.176;11.792;2022-08-03T08:20:16;24.40;1.00
2657;DHT22;1338;48.176;11.792;2022-08-03T08:22:55;24.40;1.00
2657;DHT22;1338;48.176;11.792;2022-08-03T08:25:27;24.50;1.00
2657;DHT22;1338;48.176;11.792;2022-08-03T08:27:56;24.60;1.00
2657;DHT22;1338;48.176;11.792;2022-08-03T08:30:48;24.50;1.00
2657;DHT22;1338;48.176;11.792;2022-08-03T08:33:17;24.90;1.00
2657;DHT22;1338;48.176;11.792;2022-08-03T08:35:51;24.70;1.00
2657;DHT22;1338;48.176;11.792;2022-08-03T08:38:19;24.80;1.00
2657;DHT22;1338;48.176;11.792;2022-08-03T08:40:48;25.20;1.00
2657;DHT22;1338;48.176;11.792;2022-08-03T08:43:16;25.20;1.00
2657;DHT22;1338;48.176;11.792;2022-08-03T08:45:47;25.50;1.00
2657;DHT22;1338;48.176;11.792;2022-08-03T08:48:21;25.40;1.00
2657;DHT22;1338;48.176;11.792;2022-08-03T08:50:52;25.70;99.90
2657;DHT22;1338;48.176;11.792;2022-08-03T08:53:21;25.60;99.90
2657;DHT22;1338;48.176;11.792;2022-08-03T08:55:54;25.40;99.90
2657;DHT22;1338;48.176;11.792;2022-08-03T08:58:28;25.80;99.90
2657;DHT22;1338;48.176;11.792;2022-08-03T09:00:59;25.60;99.90
2657;DHT22;1338;48.176;11.792;2022-08-03T09:03:27;25.80;99.90
2657;DHT22;1338;48.176;11.792;2022-08-03T09:05:58;26.00;99.90
2657;DHT22;1338;48.176;11.792;2022-08-03T09:08:28;26.10;99.90
2657;DHT22;1338;48.176;11.792;2022-08-03T09:10:57;26.40;99.90
2657;DHT22;1338;48.176;11.792;2022-08-03T09:13:25;26.20;99.90
2657;DHT22;1338;48.176;11.792;2022-08-03T09:18:49;26.60;99.90
2657;DHT22;1338;48.176;11.792;2022-08-03T09:21:20;26.40;99.90
2657;DHT22;1338;48.176;11.792;2022-08-03T09:24:00;26.80;99.90
2657;DHT22;1338;48.176;11.792;2022-08-03T09:26:33;26.70;99.90
2657;DHT22;1338;48.176;11.792;2022-08-03T09:29:03;26.40;99.90
2657;DHT22;1338;48.176;11.792;2022-08-03T09:31:41;26.80;99.90
2657;DHT22;1338;48.176;11.792;2022-08-03T09:34:13;27.20;99.90
2657;DHT22;1338;48.176;11.792;2022-08-03T09:36:43;27.40;99.90
2657;DHT22;1338;48.176;11.792;2022-08-03T09:39:13;27.40;99.90
2657;DHT22;1338;48.176;11.792;2022-08-03T09:41:43;27.60;99.90
2657;DHT22;1338;48.176;11.792;2022-08-03T09:44:14;27.80;99.90
2657;DHT22;1338;48.176;11.792;2022-08-03T09:46:53;27.60;99.90
2657;DHT22;1338;48.176;11.792;2022-08-03T09:49:23;27.60;99.90
2657;DHT22;1338;48.176;11.792;2022-08-03T09:51:52;27.50;99.90
2657;DHT22;1338;48.176;11.792;2022-08-03T09:54:42;27.70;99.90
2657;DHT22;1338;48.176;11.792;2022-08-03T09:57:21;27.90;99.90
2657;DHT22;1338;48.176;11.792;2022-08-03T09:59:49;28.60;99.90
2657;DHT22;1338;48.176;11.792;2022-08-03T10:02:38;28.10;99.90
2657;DHT22;1338;48.176;11.792;2022-08-03T10:05:10;28.50;99.90
2657;DHT22;1338;48.176;11.792;2022-08-03T10:07:47;28.20;99.90
2657;DHT22;1338;48.176;11.792;2022-08-03T10:10:16;28.90;99.90
2657;DHT22;1338;48.176;11.792;2022-08-03T10:12:59;28.50;99.90
2657;DHT22;1338;48.176;11.792;2022-08-03T10:15:27;27.90;99.90
2657;DHT22;1338;48.176;11.792;2022-08-03T10:18:16;28.30;99.90
2657;DHT22;1338;48.176;11.792;2022-08-03T10:20:49;28.70;99.90
2657;DHT22;1338;48.176;11.792;2022-08-03T10:23:19;28.70;99.90
2657;DHT22;1338;48.176;11.792;2022-08-03T10:25:52;28.90;99.90
2657;DHT22;1338;48.176;11.792;2022-08-03T10:28:21;29.30;99.90
2657;DHT22;1338;48.176;11.792;2022-08-03T10:30:51;29.40;99.90
2657;DHT22;1338;48.176;11.792;2022-08-03T10:33:21;29.30;99.90
2657;DHT22;1338;48.176;11.792;2022-08-03T10:36:12;29.90;99.90
2657;DHT22;1338;48.176;11.792;2022-08-03T10:38:43;28.60;99.90
2657;DHT22;1338;48.176;11.792;2022-08-03T10:41:19;29.60;99.90
2657;DHT22;1338;48.176;11.792;2022-08-03T10:43:52;29.40;99.90
2657;DHT22;1338;48.176;11.792;2022-08-03T10:46:21;29.80;99.90
2657;DHT22;1338;48.176;11.792;2022-08-03T10:48:49;29.50;99.90
2657;DHT22;1338;48.176;11.792;2022-08-03T10:51:21;29.70;99.90
2657;DHT22;1338;48.176;11.792;2022-08-03T10:53:50;30.10;99.90
2657;DHT22;1338;48.176;11.792;2022-08-03T10:56:40;29.60;99.90
2657;DHT22;1338;48.176;11.792;2022-08-03T10:59:59;30.00;99.90
2657;DHT22;1338;48.176;11.792;2022-08-03T11:03:04;30.00;99.90
2657;DHT22;1338;48.176;11.792;2022-08-03T11:05:38;30.50;99.90
2657;DHT22;1338;48.176;11.792;2022-08-03T11:08:28;30.20;99.90
2657;DHT22;1338;48.176;11.792;2022-08-03T11:10:58;29.90;99.90
2657;DHT22;1338;48.176;11.792;2022-08-03T11:13:28;30.40;99.90
2657;DHT22;1338;48.176;11.792;2022-08-03T11:16:02;29.90;99.90
2657;DHT22;1338;48.176;11.792;2022-08-03T11:18:35;30.60;99.90
2657;DHT22;1338;48.176;11.792;2022-08-03T11:21:03;30.20;99.90
2657;DHT22;1338;48.176;11.792;2022-08-03T11:23:44;30.70;99.90
2657;DHT22;1338;48.176;11.792;2022-08-03T11:26:32;30.60;99.90
2657;DHT22;1338;48.176;11.792;2022-08-03T11:29:25;30.80;99.90
2657;DHT22;1338;48.176;11.792;2022-08-03T11:31:53;31.20;99.90
2657;DHT22;1338;48.176;11.792;2022-08-03T11:34:22;32.40;99.90
2657;DHT22;1338;48.176;11.792;2022-08-03T11:37:22;31.30;99.90
2657;DHT22;1338;48.176;11.792;2022-08-03T11:39:59;31.70;99.90
2657;DHT22;1338;48.176;11.792;2022-08-03T11:42:39;32.20;99.90
2657;DHT22;1338;48.176;11.792;2022-08-03T11:45:07;30.80;99.90
2657;DHT22;1338;48.176;11.792;2022-08-03T11:47:38;30.90;99.90
2657;DHT22;1338;48.176;11.792;2022-08-03T11:50:17;31.20;99.90
2657;DHT22;1338;48.176;11.792;2022-08-03T11:52:48;31.20;99.90
2657;DHT22;1338;48.176;11.792;2022-08-03T11:55:19;31.70;99.90
2657;DHT22;1338;48.176;11.792;2022-08-03T11:57:48;32.00;99.90
2657;DHT22;1338;48.176;11.792;2022-08-03T12:00:36;32.30;99.90
2657;DHT22;1338;48.176;11.792;2022-08-03T12:03:08;31.50;99.90
2657;DHT22;1338;48.176;11.792;2022-08-03T12:05:42;31.20;99.90
2657;DHT22;1338;48.176;11.792;2022-08-03T12:08:29;32.70;99.90
2657;DHT22;1338;48.176;11.792;2022-08-03T12:11:02;33.00;99.90
2657;DHT22;1338;48.176;11.792;2022-08-03T12:13:37;32.40;99.90
2657;DHT22;1338;48.176;11.792;2022-08-03T12:16:26;32.30;99.90
2657;DHT22;1338;48.176;11.792;2022-08-03T12:18:56;32.40;99.90
2657;DHT22;1338;48.176;11.792;2022-08-03T12:21:24;32.30;99.90
2657;DHT22;1338;48.176;11.792;2022-08-03T12:23:56;32.20;99.90
2657;DHT22;1338;48.176;11.792;2022-08-03T12:26:28;32.50;99.90
2657;DHT22;1338;48.176;11.792;2022-08-03T12:28:57;33.60;99.90
2657;DHT22;1338;48.176;11.792;2022-08-03T12:31:25;32.90;99.90
2657;DHT22;1338;48.176;11.792;2022-08-03T12:33:55;33.00;99.90
2657;DHT22;1338;48.176;11.792;2022-08-03T12:36:25;32.70;99.90
2657;DHT22;1338;48.176;11.792;2022-08-03T12:38:54;33.70;99.90
2657;DHT22;1338;48.176;11.792;2022-08-03T12:41:29;33.50;99.90
2657;DHT22;1338;48.176;11.792;2022-08-03T12:44:00;33.60;99.90
2657;DHT22;1338;48.176;11.792;2022-08-03T12:46:31;33.50;99.90
2657;DHT22;1338;48.176;11.792;2022-08-03T12:49:08;32.90;99.90
2657;DHT22;1338;48.176;11.792;2022-08-03T12:54:25;32.90;99.90
2657;DHT22;1338;48.176;11.792;2022-08-03T12:56:58;33.70;99.90
2657;DHT22;1338;48.176;11.792;2022-08-03T12:59:29;35.30;99.90
2657;DHT22;1338;48.176;11.792;2022-08-03T13:02:13;34.40;99.90
2657;DHT22;1338;48.176;11.792;2022-08-03T13:04:44;34.50;99.90
2657;DHT22;1338;48.176;11.792;2022-08-03T13:07:13;32.90;99.90
2657;DHT22;1338;48.176;11.792;2022-08-03T13:09:45;32.90;99.90
2657;DHT22;1338;48.176;11.792;2022-08-03T13:12:16;34.40;99.90
2657;DHT22;1338;48.176;11.792;2022-08-03T13:14:48;35.60;99.90
2657;DHT22;1338;48.176;11.792;2022-08-03T13:17:17;35.00;99.90
2657;DHT22;1338;48.176;11.792;2022-08-03T13:19:47;36.40;99.90
2657;DHT22;1338;48.176;11.792;2022-08-03T13:22:17;34.30;99.90
2657;DHT22;1338;48.176;11.792;2022-08-03T13:24:46;34.60;99.90
2657;DHT22;1338;48.176;11.792;2022-08-03T13:27:16;35.20;99.90
2657;DHT22;1338;48.176;11.792;2022-08-03T13:30:06;35.60;99.90
2657;DHT22;1338;48.176;11.792;2022-08-03T13:32:35;34.00;99.90
2657;DHT22;1338;48.176;11.792;2022-08-03T13:37:32;36.30;99.90
2657;DHT22;1338;48.176;11.792;2022-08-03T13:40:01;35.70;99.90
2657;DHT22;1338;48.176;11.792;2022-08-03T13:42:34;35.30;99.90
2657;DHT22;1338;48.176;11.792;2022-08-03T13:45:03;36.50;99.90
2657;DHT22;1338;48.176;11.792;2022-08-03T13:47:32;37.00;99.90
2657;DHT22;1338;48.176;11.792;2022-08-03T13:50:00;36.40;99.90
2657;DHT22;1338;48.176;11.792;2022-08-03T13:52:30;39.10;99.90
2657;DHT22;1338;48.176;11.792;2022-08-03T13:54:59;38.60;99.90
2657;DHT22;1338;48.176;11.792;2022-08-03T13:57:27;36.30;99.90
2657;DHT22;1338;48.176;11.792;2022-08-03T14:00:18;37.20;99.90
2657;DHT22;1338;48.176;11.792;2022-08-03T14:02:59;36.10;99.90
2657;DHT22;1338;48.176;11.792;2022-08-03T14:05:35;36.80;99.90
2657;DHT22;1338;48.176;11.792;2022-08-03T14:08:05;37.70;99.90
2657;DHT22;1338;48.176;11.792;2022-08-03T14:10:35;37.80;99.90
2657;DHT22;1338;48.176;11.792;2022-08-03T14:13:04;36.30;99.90
2657;DHT22;1338;48.176;11.792;2022-08-03T14:15:34;37.20;99.90
2657;DHT22;1338;48.176;11.792;2022-08-03T14:18:05;37.20;99.90
2657;DHT22;1338;48.176;11.792;2022-08-03T14:20:42;37.00;99.90
2657;DHT22;1338;48.176;11.792;2022-08-03T14:23:17;37.60;99.90
2657;DHT22;1338;48.176;11.792;2022-08-03T14:25:45;36.60;99.90
2657;DHT22;1338;48.176;11.792;2022-08-03T14:28:19;40.60;99.90
2657;DHT22;1338;48.176;11.792;2022-08-03T14:30:52;38.90;99.90
2657;DHT22;1338;48.176;11.792;2022-08-03T14:33:20;38.00;99.90
2657;DHT22;1338;48.176;11.792;2022-08-03T14:35:49;37.30;99.90
2657;DHT22;1338;48.176;11.792;2022-08-03T14:38:18;37.00;99.90
2657;DHT22;1338;48.176;11.792;2022-08-03T14:40:47;38.20;99.90
2657;DHT22;1338;48.176;11.792;2022-08-03T14:43:15;38.40;99.90
2657;DHT22;1338;48.176;11.792;2022-08-03T14:45:46;37.20;99.90
2657;DHT22;1338;48.176;11.792;2022-08-03T14:48:15;36.90;99.90
2657;DHT22;1338;48.176;11.792;2022-08-03T14:51:04;36.90;99.90
2657;DHT22;1338;48.176;11.792;2022-08-03T14:53:33;37.60;99.90
2657;DHT22;1338;48.176;11.792;2022-08-03T14:56:01;39.10;99.90
2657;DHT22;1338;48.176;11.792;2022-08-03T14:58:36;38.30;99.90
2657;DHT22;1338;48.176;11.792;2022-08-03T15:01:05;37.70;99.90
2657;DHT22;1338;48.176;11.792;2022-08-03T15:03:55;39.00;99.90
2657;DHT22;1338;48.176;11.792;2022-08-03T15:06:23;38.30;99.90
2657;DHT22;1338;48.176;11.792;2022-08-03T15:08:52;38.40;99.90
2657;DHT22;1338;48.176;11.792;2022-08-03T15:11:40;39.10;99.90
2657;DHT22;1338;48.176;11.792;2022-08-03T15:14:08;38.60;99.90
2657;DHT22;1338;48.176;11.792;2022-08-03T15:16:40;37.90;99.90
2657;DHT22;1338;48.176;11.792;2022-08-03T15:19:10;38.10;99.90
2657;DHT22;1338;48.176;11.792;2022-08-03T15:21:59;39.30;99.90
2657;DHT22;1338;48.176;11.792;2022-08-03T15:24:27;37.60;99.90
2657;DHT22;1338;48.176;11.792;2022-08-03T15:26:56;36.80;99.90
2657;DHT22;1338;48.176;11.792;2022-08-03T15:29:24;39.80;99.90
2657;DHT22;1338;48.176;11.792;2022-08-03T15:32:13;39.50;99.90
2657;DHT22;1338;48.176;11.792;2022-08-03T15:34:43;40.30;99.90
2657;DHT22;1338;48.176;11.792;2022-08-03T15:37:16;38.40;99.90
2657;DHT22;1338;48.176;11.792;2022-08-03T15:39:44;36.50;99.90
2657;DHT22;1338;48.176;11.792;2022-08-03T15:42:27;37.50;99.90
2657;DHT22;1338;48.176;11.792;2022-08-03T15:44:56;38.60;99.90
2657;DHT22;1338;48.176;11.792;2022-08-03T15:47:24;38.90;99.90
2657;DHT22;1338;48.176;11.792;2022-08-03T15:49:54;37.80;99.90
2657;DHT22;1338;48.176;11.792;2022-08-03T15:52:22;37.40;99.90
2657;DHT22;1338;48.176;11.792;2022-08-03T15:54:50;38.40;99.90
2657;DHT22;1338;48.176;11.792;2022-08-03T15:57:19;40.10;99.90
2657;DHT22;1338;48.176;11.792;2022-08-03T15:59:47;40.20;99.90
2657;DHT22;1338;48.176;11.792;2022-08-03T16:02:15;39.70;99.90
2657;DHT22;1338;48.176;11.792;2022-08-03T16:04:44;37.10;99.90
2657;DHT22;1338;48.176;11.792;2022-08-03T16:07:13;39.00;99.90
2657;DHT22;1338;48.176;11.792;2022-08-03T16:09:42;38.70;99.90
2657;DHT22;1338;48.176;11.792;2022-08-03T16:12:10;40.50;99.90
2657;DHT22;1338;48.176;11.792;2022-08-03T16:14:43;39.10;99.90
2657;DHT22;1338;48.176;11.792;2022-08-03T16:17:19;38.60;99.90
2657;DHT22;1338;48.176;11.792;2022-08-03T16:19:48;38.80;99.90
2657;DHT22;1338;48.176;11.792;2022-08-03T16:22:20;37.50;99.90
2657;DHT22;1338;48.176;11.792;2022-08-03T16:24:49;38.20;99.90
2657;DHT22;1338;48.176;11.792;2022-08-03T16:27:18;37.60;99.90
2657;DHT22;1338;48.176;11.792;2022-08-03T16:30:08;38.30;99.90
2657;DHT22;1338;48.176;11.792;2022-08-03T16:32:36;37.10;99.90
2657;DHT22;1338;48.176;11.792;2022-08-03T16:35:06;37.10;99.90
2657;DHT22;1338;48.176;11.792;2022-08-03T16:37:36;37.60;99.90
2657;DHT22;1338;48.176;11.792;2022-08-03T16:40:07;37.50;99.90